Time;durP1;ratioP1;P1;durP2;ratioP2;P2;SDS_P1;SDS_P2;PMS_P1;PMS_P2;Temp;Humidity;BMP_temperature;BMP_pressure;BME280_temperature;BME280_humidity;BME280_pressure;Samples;Min_cycle;Max_cycle;Signal;HPM_P1;HPM_P2
2020/12/27 00:02:17;;;;;;;8.60;6.88;;;-2.10;82.70;;;;;;5049788;28;20025;-83
2020/12/27 00:04:44;;;;;;;11.85;6.22;;;-2.30;82.00;;;;;;5047458;28;20048;-83
2020/12/27 00:07:11;;;;;;;10.57;6.80;;;-2.40;81.80;;;;;;5036189;28;20018;-84
2020/12/27 00:09:44;;;;;;;10.00;6.72;;;-2.40;81.60;;;;;;5036250;28;20047;-86
2020/12/27 00:12:11;;;;;;;10.20;6.68;;;-2.50;82.00;;;;;;5034903;28;20017;-84
2020/12/27 00:14:37;;;;;;;9.15;6.32;;;-2.50;81.40;;;;;;5036752;28;20033;-83
2020/12/27 00:17:09;;;;;;;8.98;6.00;;;-2.60;81.30;;;;;;5021395;28;20036;-84
2020/12/27 00:19:36;;;;;;;10.88;7.45;;;-2.70;81.30;;;;;;5037965;28;20482;-84
2020/12/27 00:22:02;;;;;;;14.20;7.07;;;-2.80;81.60;;;;;;5035985;28;20033;-81
2020/12/27 00:24:28;;;;;;;13.23;7.43;;;-2.80;81.40;;;;;;5040141;28;20037;-82
2020/12/27 00:26:58;;;;;;;13.20;7.65;;;-2.80;81.10;;;;;;5025494;28;20029;-82
2020/12/27 00:29:23;;;;;;;10.52;6.80;;;-2.70;81.20;;;;;;5038975;28;20053;-81
2020/12/27 00:31:50;;;;;;;9.63;5.63;;;-2.70;81.40;;;;;;5025059;28;20049;-82
2020/12/27 00:34:16;;;;;;;11.75;7.32;;;-2.70;81.10;;;;;;5039465;28;20094;-83
2020/12/27 00:36:42;;;;;;;10.23;6.38;;;-2.70;81.20;;;;;;5043750;28;20029;-83
2020/12/27 00:39:08;;;;;;;11.80;7.60;;;-2.70;80.90;;;;;;5044854;28;20017;-82
2020/12/27 00:41:37;;;;;;;12.75;7.72;;;-2.80;80.60;;;;;;5027701;28;20038;-83
2020/12/27 00:44:11;;;;;;;13.43;7.35;;;-2.80;80.80;;;;;;5033235;28;20394;-84
2020/12/27 00:46:51;;;;;;;13.50;8.25;;;-2.80;81.10;;;;;;5017578;28;20030;-84
2020/12/27 00:49:36;;;;;;;10.05;7.85;;;-2.80;81.20;;;;;;4970575;28;20054;-84
2020/12/27 00:52:27;;;;;;;9.27;5.65;;;-2.80;81.20;;;;;;4957176;28;20038;-83
2020/12/27 00:54:57;;;;;;;10.35;6.32;;;-2.90;81.20;;;;;;4975041;28;20042;-82
2020/12/27 00:57:29;;;;;;;12.85;8.45;;;-3.00;81.30;;;;;;4980718;28;20034;-82
2020/12/27 01:00:19;;;;;;;10.85;7.00;;;-3.00;81.50;;;;;;4963913;28;20049;-83
2020/12/27 01:02:52;;;;;;;11.00;6.80;;;-3.00;81.50;;;;;;4978183;28;20476;-82
2020/12/27 01:05:18;;;;;;;13.45;7.57;;;-3.00;81.60;;;;;;4975800;28;20456;-83
2020/12/27 01:07:47;;;;;;;11.98;8.00;;;-3.00;81.60;;;;;;4979097;28;20046;-82
2020/12/27 01:10:27;;;;;;;9.13;5.40;;;-3.00;81.90;;;;;;4956582;28;20039;-81
2020/12/27 01:13:00;;;;;;;8.00;6.18;;;-3.10;82.50;;;;;;4960786;28;20400;-81
2020/12/27 01:15:29;;;;;;;10.98;7.18;;;-3.10;82.80;;;;;;4957705;28;20122;-81
2020/12/27 01:18:13;;;;;;;13.32;7.57;;;-3.10;83.10;;;;;;4946322;28;20113;-83
2020/12/27 01:20:57;;;;;;;11.70;6.97;;;-3.10;83.00;;;;;;4942495;28;20388;-81
2020/12/27 01:23:29;;;;;;;13.00;7.60;;;-3.20;83.30;;;;;;4959328;28;20519;-82
2020/12/27 01:26:10;;;;;;;10.95;6.75;;;-3.20;83.70;;;;;;4948137;29;20043;-81
2020/12/27 01:28:55;;;;;;;13.65;7.68;;;-3.10;83.70;;;;;;4959782;28;20034;-81
2020/12/27 01:31:30;;;;;;;15.10;7.30;;;-3.10;83.80;;;;;;4931932;29;20078;-82
2020/12/27 01:34:02;;;;;;;10.63;7.43;;;-3.10;83.90;;;;;;4954928;28;20047;-82
2020/12/27 01:36:33;;;;;;;11.75;7.10;;;-3.10;84.00;;;;;;4950461;28;20515;-83
2020/12/27 01:39:01;;;;;;;13.93;8.25;;;-3.00;84.30;;;;;;4956594;28;20019;-82
2020/12/27 01:41:40;;;;;;;14.77;8.80;;;-3.00;84.40;;;;;;4942863;28;20115;-82
2020/12/27 01:44:14;;;;;;;10.18;6.13;;;-3.00;85.20;;;;;;4950379;28;20035;-83
2020/12/27 01:46:44;;;;;;;13.50;7.78;;;-3.00;85.10;;;;;;4979225;28;20598;-82
2020/12/27 01:49:11;;;;;;;12.23;6.78;;;-3.10;85.40;;;;;;4991602;28;20022;-82
2020/12/27 01:51:40;;;;;;;16.17;8.93;;;-3.00;85.70;;;;;;4974311;28;20035;-82
2020/12/27 01:54:09;;;;;;;14.32;9.00;;;-3.00;85.90;;;;;;4955718;28;20106;-83
2020/12/27 01:56:41;;;;;;;10.35;7.60;;;-2.90;85.90;;;;;;4965024;28;20035;-82
2020/12/27 01:59:23;;;;;;;13.75;6.57;;;-2.90;85.80;;;;;;4973253;28;20023;-82
2020/12/27 02:01:53;;;;;;;13.05;8.52;;;-3.00;86.10;;;;;;4971740;28;20038;-83
2020/12/27 02:04:25;;;;;;;12.50;7.82;;;-3.00;86.40;;;;;;4979381;28;20026;-84
2020/12/27 02:06:58;;;;;;;17.58;9.50;;;-3.00;86.70;;;;;;4974177;28;20052;-85
2020/12/27 02:09:33;;;;;;;12.32;8.48;;;-3.00;86.50;;;;;;4981590;28;20023;-80
2020/12/27 02:12:10;;;;;;;12.23;8.00;;;-3.00;86.40;;;;;;4977998;28;20085;-84
2020/12/27 02:14:42;;;;;;;11.17;6.30;;;-3.00;86.50;;;;;;4966780;28;20065;-84
2020/12/27 02:17:14;;;;;;;11.13;7.63;;;-3.00;86.50;;;;;;4979328;28;20027;-84
2020/12/27 02:19:49;;;;;;;13.32;7.03;;;-3.10;86.70;;;;;;4983602;28;20038;-82
2020/12/27 02:22:20;;;;;;;11.02;7.20;;;-3.00;86.80;;;;;;4980610;28;20050;-84
2020/12/27 02:24:49;;;;;;;12.60;8.07;;;-3.00;86.70;;;;;;4982407;28;20482;-81
2020/12/27 02:27:16;;;;;;;13.10;8.60;;;-3.10;86.70;;;;;;4983908;28;20030;-82
2020/12/27 02:29:43;;;;;;;14.98;9.48;;;-3.10;86.60;;;;;;4988759;28;20073;-82
2020/12/27 02:32:12;;;;;;;11.82;7.53;;;-3.10;86.80;;;;;;4985610;28;20031;-81
2020/12/27 02:34:42;;;;;;;12.10;8.43;;;-3.10;86.90;;;;;;4992340;28;20483;-83
2020/12/27 02:37:11;;;;;;;12.77;7.28;;;-3.10;86.70;;;;;;4996634;28;20022;-80
2020/12/27 02:39:40;;;;;;;11.77;7.10;;;-3.10;86.70;;;;;;5053115;28;20025;-83
2020/12/27 02:42:14;;;;;;;9.02;5.13;;;-3.10;86.90;;;;;;5023692;28;20617;-82
2020/12/27 02:47:35;;;;;;;11.32;7.03;;;-3.20;87.00;;;;;;5036872;28;20501;-82
2020/12/27 02:50:13;;;;;;;12.20;7.03;;;-3.20;87.00;;;;;;5040135;28;20021;-83
2020/12/27 02:52:41;;;;;;;14.10;8.27;;;-3.20;87.10;;;;;;5040733;28;20424;-83
2020/12/27 02:55:14;;;;;;;11.05;6.00;;;-3.20;86.90;;;;;;4993111;28;20042;-83
2020/12/27 02:57:45;;;;;;;13.90;7.55;;;-3.10;87.10;;;;;;4974056;28;20042;-83
2020/12/27 03:00:18;;;;;;;12.07;6.68;;;-3.20;87.00;;;;;;4992109;28;20046;-83
2020/12/27 03:02:48;;;;;;;9.20;6.22;;;-3.20;87.10;;;;;;4972020;28;20022;-83
2020/12/27 03:05:19;;;;;;;9.77;7.10;;;-3.20;87.10;;;;;;4975436;28;20038;-83
2020/12/27 03:07:52;;;;;;;12.60;7.50;;;-3.20;86.90;;;;;;4988088;28;20510;-82
2020/12/27 03:10:19;;;;;;;9.20;6.95;;;-3.20;86.80;;;;;;4991004;28;20150;-83
2020/12/27 03:12:50;;;;;;;10.80;5.53;;;-3.20;87.00;;;;;;4986295;28;20081;-81
2020/12/27 03:15:18;;;;;;;9.90;7.38;;;-3.10;87.00;;;;;;4951716;29;20160;-83
2020/12/27 03:17:51;;;;;;;12.77;9.00;;;-3.20;86.70;;;;;;4945947;28;20032;-82
2020/12/27 03:20:19;;;;;;;12.48;6.93;;;-3.20;86.70;;;;;;4935417;29;20118;-82
2020/12/27 03:22:48;;;;;;;12.43;6.57;;;-3.10;86.50;;;;;;4905821;29;20043;-82
2020/12/27 03:25:14;;;;;;;9.32;7.13;;;-3.10;86.00;;;;;;4909949;29;20032;-84
2020/12/27 03:27:40;;;;;;;6.82;5.47;;;-3.10;85.60;;;;;;4906608;29;20031;-83
2020/12/27 03:30:06;;;;;;;14.18;7.10;;;-3.20;85.40;;;;;;4902997;29;20497;-83
2020/12/27 03:32:32;;;;;;;11.70;5.85;;;-3.20;85.50;;;;;;4933575;28;20055;-82
2020/12/27 03:34:59;;;;;;;10.98;6.68;;;-3.10;85.30;;;;;;4967854;28;20114;-83
2020/12/27 03:37:25;;;;;;;9.53;6.07;;;-3.10;84.80;;;;;;4966705;28;20031;-84
2020/12/27 03:39:51;;;;;;;9.93;5.50;;;-3.10;84.20;;;;;;4971709;28;20038;-84
2020/12/27 03:42:17;;;;;;;10.30;7.25;;;-3.10;84.30;;;;;;4964764;28;20038;-83
2020/12/27 03:44:43;;;;;;;10.93;7.97;;;-3.10;84.50;;;;;;4959475;28;20094;-84
2020/12/27 03:47:09;;;;;;;10.63;6.40;;;-3.10;84.50;;;;;;4958340;28;20023;-82
2020/12/27 03:49:35;;;;;;;12.82;6.82;;;-3.10;84.10;;;;;;4957815;28;20020;-83
2020/12/27 03:52:01;;;;;;;10.70;6.78;;;-3.10;83.90;;;;;;4962507;28;20047;-84
2020/12/27 03:54:26;;;;;;;9.13;6.88;;;-3.10;83.70;;;;;;4960899;28;20024;-86
2020/12/27 03:56:52;;;;;;;14.48;8.20;;;-3.10;83.20;;;;;;4960300;28;20489;-86
2020/12/27 03:59:18;;;;;;;8.82;5.07;;;-3.10;83.60;;;;;;4960498;28;20086;-85
2020/12/27 04:01:44;;;;;;;10.20;6.45;;;-3.10;82.40;;;;;;4959229;28;20158;-86
2020/12/27 04:04:09;;;;;;;11.45;7.75;;;-3.20;82.20;;;;;;4958878;28;20042;-83
2020/12/27 04:06:35;;;;;;;11.57;7.60;;;-3.20;82.00;;;;;;5009135;28;20530;-84
2020/12/27 04:09:01;;;;;;;13.20;7.38;;;-3.20;81.90;;;;;;5053350;28;20009;-85
2020/12/27 04:11:27;;;;;;;12.70;7.28;;;-3.20;81.80;;;;;;5063840;28;20021;-85
2020/12/27 04:13:53;;;;;;;11.55;7.55;;;-3.20;81.90;;;;;;5044108;28;20100;-85
2020/12/27 04:16:19;;;;;;;11.70;7.55;;;-3.30;82.00;;;;;;5047017;28;20020;-85
2020/12/27 04:18:45;;;;;;;12.55;7.82;;;-3.30;81.70;;;;;;5043615;28;20025;-84
2020/12/27 04:21:14;;;;;;;12.68;6.30;;;-3.30;81.90;;;;;;5031110;28;20037;-86
2020/12/27 04:23:43;;;;;;;12.80;7.47;;;-3.30;81.70;;;;;;5029912;28;20104;-84
2020/12/27 04:26:12;;;;;;;12.43;7.90;;;-3.40;81.30;;;;;;5034526;28;20024;-84
2020/12/27 04:28:38;;;;;;;13.50;7.90;;;-3.40;81.70;;;;;;5036447;28;20024;-83
2020/12/27 04:31:04;;;;;;;15.27;7.70;;;-3.40;81.90;;;;;;5045084;28;20029;-85
2020/12/27 04:33:30;;;;;;;9.27;6.65;;;-3.30;81.30;;;;;;5020838;28;20022;-84
2020/12/27 04:35:55;;;;;;;8.43;5.70;;;-3.40;80.70;;;;;;5028676;28;20048;-85
2020/12/27 04:38:21;;;;;;;11.20;8.23;;;-3.40;80.30;;;;;;5050062;28;20028;-86
2020/12/27 04:40:47;;;;;;;13.18;8.27;;;-3.50;80.40;;;;;;5052593;28;20033;-86
2020/12/27 04:43:15;;;;;;;11.48;8.02;;;-3.50;80.80;;;;;;5046441;28;20014;-85
2020/12/27 04:45:41;;;;;;;15.77;8.95;;;-3.50;81.10;;;;;;5035706;28;20040;-85
2020/12/27 04:48:07;;;;;;;10.65;6.68;;;-3.50;80.90;;;;;;5037209;28;20022;-87
2020/12/27 04:50:34;;;;;;;13.00;7.95;;;-3.50;80.00;;;;;;5040609;28;20022;-85
2020/12/27 04:53:00;;;;;;;11.02;6.82;;;-3.50;80.10;;;;;;5045163;28;20056;-87
2020/12/27 04:55:25;;;;;;;12.90;8.15;;;-3.50;80.30;;;;;;5042619;28;20436;-83
2020/12/27 04:57:54;;;;;;;12.75;7.65;;;-3.50;79.80;;;;;;5039759;28;20096;-81
2020/12/27 05:00:22;;;;;;;13.98;7.85;;;-3.60;79.40;;;;;;5040106;28;20026;-85
2020/12/27 05:02:48;;;;;;;13.43;8.68;;;-3.50;79.80;;;;;;5029131;28;20030;-86
2020/12/27 05:05:14;;;;;;;11.15;8.18;;;-3.50;80.50;;;;;;5021659;28;20171;-82
2020/12/27 05:07:42;;;;;;;13.65;8.63;;;-3.50;79.80;;;;;;5044341;28;20103;-82
2020/12/27 05:10:08;;;;;;;13.70;8.10;;;-3.50;79.40;;;;;;5039343;28;20144;-82
2020/12/27 05:12:36;;;;;;;19.67;15.82;;;-3.50;79.50;;;;;;5044465;28;20025;-81
2020/12/27 05:15:04;;;;;;;10.73;6.53;;;-3.40;79.50;;;;;;5041111;28;20160;-83
2020/12/27 05:17:30;;;;;;;12.60;7.90;;;-3.40;79.40;;;;;;5044285;28;20029;-85
2020/12/27 05:19:56;;;;;;;16.55;9.70;;;-3.50;79.20;;;;;;5044120;28;20033;-83
2020/12/27 05:22:23;;;;;;;11.32;7.88;;;-3.50;79.50;;;;;;5044772;28;20021;-85
2020/12/27 05:24:53;;;;;;;14.27;9.23;;;-3.50;79.30;;;;;;5046400;28;20017;-84
2020/12/27 05:27:20;;;;;;;11.60;6.47;;;-3.60;78.70;;;;;;5046012;28;20509;-85
2020/12/27 05:29:46;;;;;;;14.82;8.52;;;-3.60;78.70;;;;;;5041211;28;20035;-85
2020/12/27 05:32:12;;;;;;;10.48;6.70;;;-3.70;78.70;;;;;;5050983;28;20048;-84
2020/12/27 05:34:38;;;;;;;12.65;7.78;;;-3.70;78.50;;;;;;5054715;28;20033;-86
2020/12/27 05:37:06;;;;;;;10.00;7.35;;;-3.70;78.50;;;;;;5045624;28;20148;-86
2020/12/27 05:39:32;;;;;;;12.38;6.57;;;-3.80;78.60;;;;;;5034600;28;20499;-87
2020/12/27 05:42:06;;;;;;;14.40;7.00;;;-3.80;79.00;;;;;;5034761;28;20483;-82
2020/12/27 05:44:35;;;;;;;10.93;7.43;;;-3.90;79.10;;;;;;5015893;28;20435;-81
2020/12/27 05:47:02;;;;;;;14.50;8.55;;;-3.90;79.10;;;;;;5034314;28;20021;-82
2020/12/27 05:49:28;;;;;;;12.30;8.05;;;-3.90;79.20;;;;;;5035793;28;20028;-85
2020/12/27 05:51:58;;;;;;;11.55;7.00;;;-3.90;79.10;;;;;;5041225;28;20018;-84
2020/12/27 05:54:32;;;;;;;13.48;7.40;;;-3.80;79.30;;;;;;5035196;28;20449;-86
2020/12/27 05:57:00;;;;;;;12.85;8.18;;;-3.80;79.30;;;;;;5039159;28;20093;-86
2020/12/27 05:59:35;;;;;;;14.05;8.27;;;-3.80;79.60;;;;;;5044095;28;20029;-87
2020/12/27 06:02:02;;;;;;;10.07;7.03;;;-3.90;79.70;;;;;;5036966;28;20076;-86
2020/12/27 06:04:46;;;;;;;13.73;8.95;;;-4.00;79.60;;;;;;5041697;28;20021;-86
2020/12/27 06:07:32;;;;;;;14.10;8.05;;;-4.10;79.80;;;;;;5059439;28;20466;-87
2020/12/27 06:10:00;;;;;;;10.57;6.68;;;-4.20;79.80;;;;;;5027594;28;20041;-86
2020/12/27 06:12:45;;;;;;;14.10;7.28;;;-4.40;80.10;;;;;;5035719;28;20021;-85
2020/12/27 06:15:24;;;;;;;10.45;6.10;;;-4.40;80.40;;;;;;5033410;28;20100;-87
2020/12/27 06:17:54;;;;;;;11.55;7.43;;;-4.40;80.40;;;;;;5037093;28;20053;-85
2020/12/27 06:20:21;;;;;;;10.45;5.53;;;-4.50;80.70;;;;;;5033535;28;20057;-86
2020/12/27 06:22:50;;;;;;;15.02;6.97;;;-4.50;80.80;;;;;;5014574;28;20022;-85
2020/12/27 06:25:17;;;;;;;11.35;6.25;;;-4.50;80.90;;;;;;5034018;28;20122;-86
2020/12/27 06:27:43;;;;;;;11.10;7.60;;;-4.50;80.70;;;;;;5020024;28;20022;-86
2020/12/27 06:30:11;;;;;;;12.15;7.00;;;-4.50;80.80;;;;;;5040247;28;20103;-86
2020/12/27 06:32:47;;;;;;;13.60;6.88;;;-4.60;81.40;;;;;;5042904;28;20391;-85
2020/12/27 06:35:13;;;;;;;12.70;6.88;;;-4.60;80.80;;;;;;5036864;28;20478;-85
2020/12/27 06:37:45;;;;;;;10.50;6.15;;;-4.50;80.80;;;;;;5034465;28;20079;-85
2020/12/27 06:40:13;;;;;;;14.93;9.05;;;-4.60;80.90;;;;;;5033400;28;20029;-86
2020/12/27 06:42:40;;;;;;;12.02;7.57;;;-4.50;81.00;;;;;;5036552;28;20497;-86
2020/12/27 06:45:25;;;;;;;13.10;6.97;;;-4.50;81.00;;;;;;5033917;28;20033;-84
2020/12/27 06:47:53;;;;;;;17.75;7.15;;;-4.50;81.00;;;;;;5033014;28;20417;-85
2020/12/27 06:50:21;;;;;;;14.50;8.52;;;-4.40;81.10;;;;;;5039309;28;20091;-83
2020/12/27 06:52:48;;;;;;;15.68;8.48;;;-4.40;81.10;;;;;;5037850;28;20117;-84
2020/12/27 06:55:33;;;;;;;11.73;6.63;;;-4.30;81.30;;;;;;5034426;28;20105;-86
2020/12/27 06:58:24;;;;;;;12.18;7.45;;;-4.30;81.00;;;;;;5039695;28;20117;-85
2020/12/27 07:01:22;;;;;;;15.85;8.68;;;-4.30;81.10;;;;;;5041622;28;20052;-85
2020/12/27 07:03:48;;;;;;;10.68;6.88;;;-4.30;81.00;;;;;;5023595;28;20056;-84
2020/12/27 07:06:19;;;;;;;14.70;7.75;;;-4.30;81.20;;;;;;5038578;28;20034;-84
2020/12/27 07:08:46;;;;;;;16.25;8.90;;;-4.40;81.40;;;;;;5038560;28;20021;-85
2020/12/27 07:11:22;;;;;;;12.05;7.78;;;-4.30;81.20;;;;;;5037889;28;20495;-84
2020/12/27 07:13:53;;;;;;;13.52;8.60;;;-4.30;81.00;;;;;;5042299;28;20104;-85
2020/12/27 07:16:20;;;;;;;10.65;6.30;;;-4.20;80.50;;;;;;5022970;28;20040;-85
2020/12/27 07:18:49;;;;;;;12.63;7.43;;;-4.20;80.10;;;;;;5043490;28;20482;-85
2020/12/27 07:21:20;;;;;;;9.18;6.05;;;-4.30;79.70;;;;;;5050495;28;20395;-83
2020/12/27 07:24:09;;;;;;;12.10;6.63;;;-4.30;79.80;;;;;;5042879;28;20052;-86
2020/12/27 07:26:52;;;;;;;17.10;7.90;;;-4.30;80.00;;;;;;5039861;28;20115;-84
2020/12/27 07:29:21;;;;;;;11.48;7.22;;;-4.30;80.00;;;;;;5050151;28;20017;-87
2020/12/27 07:31:50;;;;;;;12.48;7.32;;;-4.20;80.50;;;;;;5049458;28;20040;-85
2020/12/27 07:34:20;;;;;;;12.82;7.68;;;-4.10;80.70;;;;;;5049815;28;20100;-84
2020/12/27 07:36:46;;;;;;;16.73;8.82;;;-4.00;80.80;;;;;;5049991;28;20025;-84
2020/12/27 07:39:12;;;;;;;15.73;7.78;;;-4.00;80.80;;;;;;5039155;28;20021;-85
2020/12/27 07:41:43;;;;;;;10.70;6.50;;;-4.00;79.90;;;;;;5027789;28;20036;-87
2020/12/27 07:44:13;;;;;;;15.75;8.25;;;-4.00;79.50;;;;;;5036835;28;20017;-85
2020/12/27 07:46:40;;;;;;;9.93;6.03;;;-4.00;79.50;;;;;;5040670;28;20029;-88
2020/12/27 07:49:10;;;;;;;12.30;6.68;;;-4.00;78.50;;;;;;5050090;28;20029;-85
2020/12/27 07:51:36;;;;;;;9.77;6.38;;;-4.10;77.90;;;;;;5049082;28;20049;-84
2020/12/27 07:54:02;;;;;;;13.30;7.03;;;-4.30;77.10;;;;;;5045742;28;20021;-82
2020/12/27 07:56:29;;;;;;;7.83;4.67;;;-4.30;77.60;;;;;;5047106;28;20022;-84
2020/12/27 07:59:03;;;;;;;14.88;6.55;;;-4.30;78.00;;;;;;5026677;28;20029;-83
2020/12/27 08:01:34;;;;;;;11.77;6.72;;;-4.30;77.60;;;;;;5052146;28;20394;-86
2020/12/27 08:04:06;;;;;;;14.15;6.70;;;-4.20;78.10;;;;;;5043424;28;20048;-89
2020/12/27 08:06:37;;;;;;;11.07;6.00;;;-4.00;78.60;;;;;;5038968;28;20048;-88
2020/12/27 08:09:06;;;;;;;13.35;8.00;;;-3.80;78.30;;;;;;5036968;28;20029;-87
2020/12/27 08:11:38;;;;;;;12.15;7.20;;;-3.70;77.20;;;;;;5032182;28;20367;-87
2020/12/27 08:14:06;;;;;;;9.30;6.30;;;-3.60;77.30;;;;;;5047108;28;20032;-86
2020/12/27 08:16:32;;;;;;;8.80;6.03;;;-3.50;77.50;;;;;;5043748;28;20104;-88
2020/12/27 08:19:12;;;;;;;12.13;7.88;;;-3.50;77.40;;;;;;5055441;28;20021;-86
2020/12/27 08:21:40;;;;;;;10.85;7.43;;;-3.40;77.30;;;;;;5036756;28;20079;-87
2020/12/27 08:24:10;;;;;;;11.48;8.00;;;-3.30;76.80;;;;;;5037559;28;20522;-87
2020/12/27 08:26:39;;;;;;;12.27;7.78;;;-3.20;77.00;;;;;;5040452;28;20091;-88
2020/12/27 08:29:10;;;;;;;14.25;9.18;;;-3.00;76.40;;;;;;5020423;28;20022;-86
2020/12/27 08:31:36;;;;;;;10.70;7.70;;;-3.00;74.40;;;;;;5050658;28;20010;-86
2020/12/27 08:34:23;;;;;;;14.77;8.70;;;-2.90;75.00;;;;;;5042039;28;20028;-87
2020/12/27 08:36:50;;;;;;;9.53;6.53;;;-2.60;75.20;;;;;;5042556;28;20017;-84
2020/12/27 08:39:37;;;;;;;9.20;6.97;;;-2.50;74.60;;;;;;5047222;28;20493;-85
2020/12/27 08:42:16;;;;;;;13.82;7.72;;;-2.50;73.90;;;;;;5037823;28;20029;-88
2020/12/27 08:44:45;;;;;;;11.18;7.70;;;-2.70;73.00;;;;;;5038391;28;20036;-81
2020/12/27 08:47:26;;;;;;;9.60;6.88;;;-2.70;73.90;;;;;;5050465;28;20013;-85
2020/12/27 08:50:04;;;;;;;12.45;7.95;;;-2.60;73.90;;;;;;5036241;28;20026;-85
2020/12/27 08:52:31;;;;;;;11.07;7.95;;;-2.70;73.70;;;;;;5044851;28;20029;-86
2020/12/27 08:55:03;;;;;;;11.52;7.35;;;-2.60;73.70;;;;;;5036721;28;20110;-84
2020/12/27 08:57:31;;;;;;;11.52;7.22;;;-2.50;73.40;;;;;;5039492;28;20116;-88
2020/12/27 08:59:58;;;;;;;13.60;7.50;;;-2.50;72.60;;;;;;5046318;28;20018;-87
2020/12/27 09:02:24;;;;;;;;;;;-2.50;72.40;;;;;;5018022;28;20068;-83
2020/12/27 09:05:19;;;;;;;10.35;7.47;;;-2.60;71.90;;;;;;5035598;28;20368;-83
2020/12/27 09:07:46;;;;;;;10.68;6.47;;;-2.60;71.90;;;;;;4993854;28;20557;-83
2020/12/27 09:10:23;;;;;;;12.60;8.20;;;-2.60;71.80;;;;;;5036221;28;20076;-82
2020/12/27 09:13:05;;;;;;;10.38;6.05;;;-2.40;71.50;;;;;;5030967;28;20099;-82
2020/12/27 09:15:35;;;;;;;10.40;7.30;;;-2.20;71.00;;;;;;5035531;28;20043;-82
2020/12/27 09:18:07;;;;;;;11.48;7.57;;;-2.00;71.50;;;;;;5038503;28;20009;-82
2020/12/27 09:20:35;;;;;;;16.98;7.63;;;-1.80;71.00;;;;;;5036503;28;20034;-82
2020/12/27 09:23:10;;;;;;;10.95;6.82;;;-1.80;69.10;;;;;;5035996;28;20024;-82
2020/12/27 09:25:36;;;;;;;9.82;7.32;;;-1.80;68.80;;;;;;5040483;28;20029;-83
2020/12/27 09:28:17;;;;;;;13.45;9.02;;;-1.70;69.10;;;;;;5039091;28;20017;-83
2020/12/27 09:30:45;;;;;;;10.35;7.00;;;-1.60;68.50;;;;;;5039502;28;20083;-80
2020/12/27 09:33:11;;;;;;;9.95;6.72;;;-1.80;68.90;;;;;;5053051;28;20025;-82
2020/12/27 09:35:37;;;;;;;12.93;7.72;;;-1.90;69.80;;;;;;5058094;28;20059;-83
2020/12/27 09:38:03;;;;;;;10.10;6.53;;;-2.00;69.80;;;;;;5061535;28;20052;-85
2020/12/27 09:40:29;;;;;;;10.48;7.25;;;-2.20;69.10;;;;;;5054200;28;20064;-84
2020/12/27 09:43:03;;;;;;;10.65;7.30;;;-2.50;68.80;;;;;;5035592;28;20021;-86
2020/12/27 09:45:30;;;;;;;10.52;7.78;;;-2.70;69.60;;;;;;5017543;28;20025;-87
2020/12/27 09:47:57;;;;;;;14.07;7.80;;;-2.80;70.20;;;;;;5035429;28;20032;-84
2020/12/27 09:50:33;;;;;;;11.80;6.85;;;-2.70;70.70;;;;;;5041657;28;20266;-91
2020/12/27 09:53:00;;;;;;;15.90;8.50;;;-2.70;70.50;;;;;;5019023;28;20017;-85
2020/12/27 09:55:27;;;;;;;14.17;8.47;;;-2.60;70.60;;;;;;5037209;28;20032;-86
2020/12/27 09:57:53;;;;;;;11.75;8.10;;;-2.60;70.60;;;;;;5021366;28;20601;-88
2020/12/27 10:00:19;;;;;;;12.07;7.63;;;-2.60;70.20;;;;;;5041791;28;20398;-84
2020/12/27 10:02:46;;;;;;;11.32;6.68;;;-2.70;70.40;;;;;;5047977;28;20021;-88
2020/12/27 10:05:12;;;;;;;14.60;9.25;;;-2.90;69.80;;;;;;5046014;28;20378;-87
2020/12/27 10:07:39;;;;;;;13.27;7.70;;;-2.90;68.90;;;;;;5047194;28;20041;-84
2020/12/27 10:10:07;;;;;;;12.15;7.38;;;-2.70;69.90;;;;;;5041010;28;20017;-86
2020/12/27 10:12:33;;;;;;;12.13;7.95;;;-2.40;70.20;;;;;;5052406;28;20103;-84
2020/12/27 10:14:59;;;;;;;10.48;7.28;;;-1.90;70.10;;;;;;5043076;28;20100;-86
2020/12/27 10:17:25;;;;;;;13.32;7.53;;;-1.40;68.10;;;;;;5041539;28;20067;-88
2020/12/27 10:19:51;;;;;;;9.70;6.78;;;-1.40;65.70;;;;;;5053086;28;20035;-86
2020/12/27 10:22:17;;;;;;;14.65;8.45;;;-1.60;65.90;;;;;;5047041;28;20053;-84
2020/12/27 10:24:44;;;;;;;11.48;7.22;;;-1.10;67.20;;;;;;5035120;28;20028;-85
2020/12/27 10:27:10;;;;;;;11.48;7.28;;;-0.60;66.30;;;;;;5033168;28;20045;-86
2020/12/27 10:29:36;;;;;;;11.82;8.52;;;-0.40;64.60;;;;;;5015444;28;20120;-84
2020/12/27 10:32:04;;;;;;;10.82;5.75;;;-0.40;64.30;;;;;;5033611;28;20367;-86
2020/12/27 10:34:30;;;;;;;11.38;6.95;;;-0.50;63.50;;;;;;5033542;28;20029;-86
2020/12/27 10:36:58;;;;;;;10.85;7.78;;;-0.70;62.70;;;;;;5032494;28;20025;-83
2020/12/27 10:39:24;;;;;;;12.65;6.75;;;-1.00;62.70;;;;;;5038418;28;20474;-86
2020/12/27 10:41:51;;;;;;;10.73;7.40;;;-1.20;62.60;;;;;;5041473;28;20038;-87
2020/12/27 10:44:17;;;;;;;10.82;7.25;;;-1.50;62.60;;;;;;5034866;28;20104;-85
2020/12/27 10:46:44;;;;;;;8.18;6.05;;;-1.80;62.90;;;;;;5058052;28;20470;-85
2020/12/27 10:49:11;;;;;;;10.23;5.95;;;-2.10;63.40;;;;;;5057866;28;20078;-86
2020/12/27 10:51:40;;;;;;;11.88;7.22;;;-2.20;64.30;;;;;;5050413;28;20021;-85
2020/12/27 10:54:07;;;;;;;8.98;5.90;;;-2.40;64.20;;;;;;5058651;28;20036;-86
2020/12/27 10:56:33;;;;;;;5.47;4.28;;;-2.50;64.40;;;;;;5058749;28;20031;-84
2020/12/27 10:59:00;;;;;;;11.23;6.87;;;-2.60;64.40;;;;;;5057285;28;20032;-83
2020/12/27 11:01:26;;;;;;;10.77;6.90;;;-2.70;64.10;;;;;;5056352;28;20442;-83
2020/12/27 11:03:52;;;;;;;8.88;6.57;;;-2.90;63.80;;;;;;5056108;28;20124;-86
2020/12/27 11:06:18;;;;;;;10.10;6.35;;;-3.10;64.10;;;;;;5056261;28;20036;-85
2020/12/27 11:08:44;;;;;;;10.52;6.55;;;-3.20;64.90;;;;;;5057644;28;20028;-86
2020/12/27 11:11:10;;;;;;;11.75;7.80;;;-3.30;65.10;;;;;;5038326;28;20021;-85
2020/12/27 11:13:37;;;;;;;11.23;6.35;;;-3.20;65.70;;;;;;5056631;28;20497;-85
2020/12/27 11:16:03;;;;;;;14.30;6.38;;;-3.30;66.20;;;;;;5057293;28;20082;-84
2020/12/27 11:18:29;;;;;;;13.05;8.02;;;-3.40;66.80;;;;;;5058404;28;20033;-86
2020/12/27 11:20:54;;;;;;;10.73;7.97;;;-3.50;67.30;;;;;;5056742;28;20037;-84
2020/12/27 11:23:20;;;;;;;10.82;6.38;;;-3.50;67.90;;;;;;5055667;28;20021;-86
2020/12/27 11:25:47;;;;;;;10.38;8.27;;;-3.50;68.20;;;;;;5056449;28;20087;-86
2020/12/27 11:28:13;;;;;;;10.77;7.18;;;-3.50;68.30;;;;;;5056573;28;20029;-85
2020/12/27 11:30:38;;;;;;;8.98;6.28;;;-3.50;68.50;;;;;;5055297;28;20032;-85
2020/12/27 11:33:04;;;;;;;13.57;9.45;;;-3.60;68.70;;;;;;5055147;28;20044;-85
2020/12/27 11:35:30;;;;;;;12.23;7.55;;;-3.60;68.90;;;;;;5037656;28;20036;-84
2020/12/27 11:37:56;;;;;;;11.88;7.55;;;-3.60;68.10;;;;;;5055522;28;20021;-84
2020/12/27 11:40:22;;;;;;;9.95;6.68;;;-3.60;68.50;;;;;;5055946;28;20120;-84
2020/12/27 11:42:48;;;;;;;8.50;6.70;;;-3.70;69.40;;;;;;5041613;28;20531;-86
2020/12/27 11:45:14;;;;;;;8.50;6.25;;;-3.70;70.30;;;;;;5038164;28;20032;-83
2020/12/27 11:47:40;;;;;;;13.43;8.35;;;-3.70;68.60;;;;;;5056386;28;20028;-85
2020/12/27 11:50:06;;;;;;;10.73;7.82;;;-3.80;68.60;;;;;;5046828;28;20024;-86
2020/12/27 11:52:35;;;;;;;10.85;7.30;;;-3.90;68.60;;;;;;5054031;28;20028;-83
2020/12/27 11:55:01;;;;;;;13.13;7.07;;;-4.00;69.00;;;;;;5043852;28;20078;-85
2020/12/27 11:57:27;;;;;;;13.65;7.13;;;-3.90;69.40;;;;;;5055559;28;20083;-86
2020/12/27 11:59:53;;;;;;;13.23;7.60;;;-4.00;69.00;;;;;;5032203;28;20018;-86
2020/12/27 12:02:18;;;;;;;11.93;8.18;;;-4.10;69.60;;;;;;5036242;28;20037;-85
2020/12/27 12:04:45;;;;;;;10.75;6.85;;;-4.10;69.80;;;;;;5053797;28;20485;-86
2020/12/27 12:07:11;;;;;;;10.75;7.70;;;-4.20;70.10;;;;;;5057661;28;20052;-84
2020/12/27 12:09:36;;;;;;;7.80;5.95;;;-4.10;70.60;;;;;;5038066;28;20451;-83
2020/12/27 12:12:02;;;;;;;14.65;8.07;;;-4.10;70.90;;;;;;5017743;28;20562;-85
2020/12/27 12:14:28;;;;;;;11.30;6.15;;;-4.10;71.40;;;;;;5048466;28;20025;-84
2020/12/27 12:16:54;;;;;;;13.35;7.10;;;-4.10;71.70;;;;;;5055352;28;20024;-85
2020/12/27 12:19:20;;;;;;;10.20;8.05;;;-4.20;71.70;;;;;;5025361;28;20026;-86
2020/12/27 12:21:53;;;;;;;13.75;9.95;;;-4.20;71.90;;;;;;5058733;28;20154;-84
2020/12/27 12:24:21;;;;;;;13.43;7.72;;;-4.20;72.20;;;;;;5073289;28;20017;-84
2020/12/27 12:26:47;;;;;;;14.82;7.55;;;-4.20;72.40;;;;;;5061266;28;20017;-85
2020/12/27 12:29:13;;;;;;;13.15;9.80;;;-4.20;72.60;;;;;;5055474;28;20470;-84
2020/12/27 12:31:39;;;;;;;15.68;8.60;;;-4.20;72.80;;;;;;5041441;28;20025;-85
2020/12/27 12:34:05;;;;;;;12.38;8.15;;;-4.10;73.10;;;;;;5037635;28;20029;-85
2020/12/27 12:36:31;;;;;;;13.38;8.10;;;-4.10;73.50;;;;;;5056246;28;20029;-85
2020/12/27 12:38:57;;;;;;;11.35;7.13;;;-4.00;73.80;;;;;;5051014;28;20446;-84
2020/12/27 12:41:24;;;;;;;11.80;8.13;;;-4.10;73.90;;;;;;5046661;28;20068;-85
2020/12/27 12:43:50;;;;;;;11.23;8.10;;;-4.00;74.10;;;;;;5047966;28;20025;-85
2020/12/27 12:46:16;;;;;;;10.15;7.00;;;-3.90;73.80;;;;;;5036219;28;20021;-82
2020/12/27 12:48:42;;;;;;;14.18;8.70;;;-4.00;73.60;;;;;;5035576;28;20029;-85
2020/12/27 12:51:08;;;;;;;16.77;9.95;;;-3.90;73.80;;;;;;5003898;28;20025;-81
2020/12/27 12:53:34;;;;;;;15.85;8.73;;;-3.90;74.00;;;;;;5033935;28;20029;-79